< < Back
Terminal Aerodrome Forecast


Current Version              Previous Versions:   1  2  3  4  5  6  7  8  9  

Terminal Aerodrome Forecast

997
FTUS44 KMOB 050539
TAFMOB
TAF
KMOB 050539Z 0506/0606 VRB03KT 3SM BR FEW060 BKN150
     FM051200 VRB03KT P6SM FEW060 BKN150
      TEMPO 0512/0516 5SM TSRA BKN025CB
     FM051600 19010KT P6SM VCTS SCT030CB BKN100
     FM052100 24008KT P6SM SCT050 BKN200=

Latest METAR

582
SAUS80 KWBC 051900 RRB
MTRMOB
METAR KMOB 051856Z COR 12008KT 4SM TSRA BR FEW070 OVC100 22/21 A3013 RMK
AO2 LTG DSNT SE AND NW RAB04 TSB29 PRESFR SLP200 P0004
T02220211 $


USA.gov is the U.S. government's official web portal to all federal, state and local government web resources and services.